AirNav   Everest Fuels
 
 1660 users online  

49F Rankin Airport
Rankin, Texas, USA

GOING TO RANKIN?


FAA INFORMATION EFFECTIVE 14 JULY 2022

Location

FAA Identifier: 49F
Lat/Long: 31-13-37.3000N 101-57-10.5000W
31-13.621667N 101-57.175000W
31.2270278,-101.9529167
(estimated)
Elevation: 2543 ft. / 775.1 m (surveyed)
Variation: 09E (1985)
From city: 1 mile W of RANKIN, TX
Time zone: UTC -5 (UTC -6 during Standard Time)
Zip code: 79755

Airport Operations

Airport use: Open to the public
Control tower: no
ARTCC: HOUSTON CENTER
FSS: SAN ANGELO FLIGHT SERVICE STATION
NOTAMs facility: SJT (NOTAM-D service available)
Attendance: UNATNDD
ARPT GATE LOCKED. FOR ACES CALL SHERIFF'S OFC 432-693-2411.
Wind indicator: yes
Segmented circle: no

Airport Communications

CTAF: 122.9

Airport Services

Airframe service: NONE
Powerplant service: NONE

Runway Information

Runway 17/35

Dimensions: 3000 x 35 ft. / 914 x 11 m
Surface: gravel/dirt, in poor condition
RWY ROUGH & UNEVEN.
RUNWAY 17  RUNWAY 35
Latitude: 31-13.869785N31-13.374853N
Longitude: 101-57.178738W101-57.172263W
Elevation: 2541.0 ft.2509.0 ft.
Traffic pattern: leftleft
Runway heading: 170 magnetic, 179 true350 magnetic, 359 true
Obstructions: 60 ft. hill, 1500 ft. from runway, 25:1 slope to clear40 ft. trees, 350 ft. from runway, 8:1 slope to clear

Airport Ownership and Management from official FAA records

Ownership: Publicly-owned
Owner: UPTON COUNTY
UPTON CO COURTHOUSE
RANKIN, TX 79778
Phone 432-693-2321
Manager: BOB MARTIN
UPTON COUNTY AIRPORT (E48)
MC CAMEY, TX 79752
Phone 432-413-8589

Airport Operational Statistics

Aircraft operations: 8/year *
100% transient general aviation
* for 12-month period ending 19 May 2021

Additional Remarks

FOR CD CTC HOUSTON ARTCC AT 281-230-5622.
RWY NOT MKD, DFCLT TO DTRM LCTN OF RWY IN FLD. DITCH ACRS NORTH END OF RWY HIDDEN BY VEGETATION.

Instrument Procedures

There are no published instrument procedures at 49F.

Some nearby airports with instrument procedures:

E41 - Reagan County Airport (25 nm E)
KMAF - Midland International Air and Space Port Airport (45 nm N)
KODO - Odessa Airport-Schlemeyer Field (47 nm NW)
KOZA - Ozona Municipal Airport (49 nm SE)
KMDD - Midland Airpark (49 nm N)
 
Loc | Ops | Rwys | IFR | FBO | Links
Com | Nav | Svcs | Stats | Notes

Chandler Aviation LLC
 
Area around 49F (Rankin Airport)
 
Road maps at: MapQuest Bing Google
 
Aerial photo
No photo
 
Sectional chart

 
Airport distance calculator
Flying to Rankin Airport? Find the distance to fly.

From to 49F

Sunrise and sunset
Times for 10-Aug-2022
 Local
(UTC-5)
 Zulu
(UTC)
Morning civil twilight06:4511:45
Sunrise07:1112:11
Sunset20:3501:35
Evening civil twilight21:0102:01

Current date and time
Zulu (UTC)  10-Aug-2022 14:31:34
Local (UTC-5)  10-Aug-2022 09:31:34
 
METAR
KE41 
25nm E 
101415Z AUTO 17009KT 10SM CLR 27/18 A3020 RMK AO2 T02690175
KMAF 
45nm N 
101353Z 19006KT 8SM BKN110 26/15 A3019 RMK AO2 SLP174 T02610150
KODO 
47nm NW 
101353Z AUTO 18008KT 10SM CLR 27/16 A3020 RMK AO2 SLP173 T02670161
KOZA 
49nm SE 
101415Z AUTO 19010G14KT 10SM CLR 27/17 A3020 RMK AO2
TAF
KMAF 
45nm N 
101120Z 1012/1112 12011KT P6SM SCT100 BKN250 FM102000 11012KT P6SM VCTS BKN080CB BKN200
NOTAMs
Click for the latest NOTAMs
NOTAMs are issued by the DoD/FAA and will open in a separate window not controlled by AirNav.

 

 
 

Would you like to see your business listed on this page?

 If your business provides an interesting product or service to pilots, flight crews, aircraft, or users of the Rankin Airport, you should consider listing it here.  To start the listing process, click on the button below
 
Add a business
 

Other Pages about Rankin Airport

Update a link
 
Copyright © AirNav, LLC. All rights reserved. Privacy Policy  Contact